Terminal Aerodrome Forecast
Issued by NWS

Home | Current Version | Previous Version | Graphics & Text | Print | Product List | Glossary On
Versions: 1 2 3 4 5 6 7 8 9 10 11 12 13 14 15 16 17 18 19 20 21 22
000
FTUS43 KOAX 242326
TAFCDR
TAF
KCDR 242326Z 2500/2524 07009KT P6SM OVC022
     FM250200 03008KT P6SM VCSH OVC015
     FM250900 36004KT P6SM OVC007
     FM251600 03006KT P6SM SCT015 BKN025=

USA.gov is the U.S. government's official web portal to all federal, state and local government web resources and services.